Time;durP1;ratioP1;P1;durP2;ratioP2;P2;SDS_P1;SDS_P2;PMS_P1;PMS_P2;Temp;Humidity;BMP_temperature;BMP_pressure;BME280_temperature;BME280_humidity;BME280_pressure;Samples;Min_cycle;Max_cycle;Signal;HPM_P1;HPM_P2
2023/05/19 00:01:21;;;;;;;6.00;3.87;;;;;;;;;;5011415;28;20767;-77
2023/05/19 00:03:52;;;;;;;5.40;4.10;;;;;;;;;;5011184;28;20460;-75
2023/05/19 00:06:22;;;;;;;5.30;3.67;;;;;;;;;;5011727;28;20471;-74
2023/05/19 00:08:50;;;;;;;4.60;3.20;;;;;;;;;;5023129;28;20443;-77
2023/05/19 00:11:17;;;;;;;5.10;3.63;;;;;;;;;;5037325;28;20435;-77
2023/05/19 00:13:47;;;;;;;15.07;3.77;;;;;;;;;;5036952;28;20447;-76
2023/05/19 00:16:15;;;;;;;3.30;3.00;;;;;;;;;;5033548;28;20521;-75
2023/05/19 00:18:43;;;;;;;5.50;4.40;;;;;;;;;;5012497;28;20455;-76
2023/05/19 00:21:10;;;;;;;5.63;3.60;;;;;;;;;;5011639;28;20534;-77
2023/05/19 00:23:37;;;;;;;4.90;3.27;;;;;;;;;;5011627;28;20514;-76
2023/05/19 00:26:04;;;;;;;5.20;3.00;;;;;;;;;;5011061;28;20554;-76
2023/05/19 00:28:31;;;;;;;3.67;2.93;;;;;;;;;;5010991;28;20444;-76
2023/05/19 00:30:58;;;;;;;5.03;3.30;;;;;;;;;;5010821;28;20467;-76
2023/05/19 00:33:28;;;;;;;5.50;3.60;;;;;;;;;;5010658;28;20463;-76
2023/05/19 00:35:55;;;;;;;5.00;3.00;;;;;;;;;;5010571;28;20538;-75
2023/05/19 00:38:22;;;;;;;4.20;3.60;;;;;;;;;;5010496;28;20447;-75
2023/05/19 00:40:50;;;;;;;6.33;3.67;;;;;;;;;;5010461;28;20470;-76
2023/05/19 00:43:17;;;;;;;4.90;3.13;;;;;;;;;;5009959;28;20455;-77
2023/05/19 00:45:45;;;;;;;8.33;3.23;;;;;;;;;;5010422;28;20498;-75
2023/05/19 00:48:12;;;;;;;4.73;3.20;;;;;;;;;;5010519;28;20479;-77
2023/05/19 00:50:41;;;;;;;4.50;2.90;;;;;;;;;;5010405;28;20833;-78
2023/05/19 00:53:08;;;;;;;4.20;3.47;;;;;;;;;;5009961;28;20447;-77
2023/05/19 00:55:39;;;;;;;3.80;3.40;;;;;;;;;;5010141;28;20454;-75
2023/05/19 00:58:06;;;;;;;9.00;4.10;;;;;;;;;;5010592;28;20984;-75
2023/05/19 01:00:35;;;;;;;4.30;3.93;;;;;;;;;;5010492;28;20857;-76
2023/05/19 01:03:09;;;;;;;6.77;3.27;;;;;;;;;;5010171;28;20856;-76
2023/05/19 01:05:37;;;;;;;5.50;3.67;;;;;;;;;;5010539;28;20526;-75
2023/05/19 01:08:05;;;;;;;4.90;3.30;;;;;;;;;;5010463;28;20487;-75
2023/05/19 01:10:32;;;;;;;5.10;3.97;;;;;;;;;;5010506;28;20471;-76
2023/05/19 01:12:59;;;;;;;5.47;3.20;;;;;;;;;;5009973;28;20447;-75
2023/05/19 01:15:27;;;;;;;4.50;3.10;;;;;;;;;;5011070;28;20556;-76
2023/05/19 01:17:57;;;;;;;4.47;3.20;;;;;;;;;;5010446;28;20440;-76
2023/05/19 01:20:27;;;;;;;5.27;3.17;;;;;;;;;;5010327;28;20471;-77
2023/05/19 01:23:09;;;;;;;7.70;3.90;;;;;;;;;;5010094;28;20489;-75
2023/05/19 01:25:48;;;;;;;7.27;3.53;;;;;;;;;;5010388;28;20443;-76
2023/05/19 01:28:36;;;;;;;6.50;3.40;;;;;;;;;;5007652;28;20494;-75
2023/05/19 01:31:06;;;;;;;5.17;3.47;;;;;;;;;;4985147;28;20463;-77
2023/05/19 01:33:33;;;;;;;5.60;3.60;;;;;;;;;;5010096;28;21147;-76
2023/05/19 01:36:02;;;;;;;4.43;3.60;;;;;;;;;;5010136;28;20447;-76
2023/05/19 01:38:30;;;;;;;5.00;3.83;;;;;;;;;;5013630;28;20494;-76
2023/05/19 01:40:58;;;;;;;7.80;3.80;;;;;;;;;;5013307;28;20884;-76
2023/05/19 01:43:26;;;;;;;4.33;3.47;;;;;;;;;;5013620;28;20439;-75
2023/05/19 01:45:53;;;;;;;4.70;3.67;;;;;;;;;;5013686;28;20500;-75
2023/05/19 01:48:22;;;;;;;8.33;4.20;;;;;;;;;;5013811;28;20475;-76
2023/05/19 01:50:49;;;;;;;4.70;3.80;;;;;;;;;;5013611;28;20513;-76
2023/05/19 01:53:17;;;;;;;5.33;3.87;;;;;;;;;;5013378;28;20451;-76
2023/05/19 01:55:45;;;;;;;11.50;4.27;;;;;;;;;;5013612;28;20454;-76
2023/05/19 01:58:16;;;;;;;5.27;3.83;;;;;;;;;;5013629;28;20443;-75
2023/05/19 02:00:48;;;;;;;5.07;3.57;;;;;;;;;;5013824;28;20467;-75
2023/05/19 02:03:19;;;;;;;5.47;3.53;;;;;;;;;;5013293;28;20497;-76
2023/05/19 02:05:53;;;;;;;3.80;3.23;;;;;;;;;;5013300;28;20901;-76
2023/05/19 02:08:23;;;;;;;4.03;3.60;;;;;;;;;;5013603;28;20463;-76
2023/05/19 02:10:52;;;;;;;4.53;3.87;;;;;;;;;;5013038;28;20482;-77
2023/05/19 02:13:20;;;;;;;5.00;4.20;;;;;;;;;;5013026;28;20956;-75
2023/05/19 02:15:48;;;;;;;8.57;4.07;;;;;;;;;;5013311;28;20592;-75
2023/05/19 02:18:19;;;;;;;6.57;3.67;;;;;;;;;;5013239;28;20444;-76
2023/05/19 02:20:47;;;;;;;6.37;4.17;;;;;;;;;;5012828;28;20463;-77
2023/05/19 02:23:14;;;;;;;5.90;3.90;;;;;;;;;;5012755;28;20505;-75
2023/05/19 02:25:41;;;;;;;4.30;3.90;;;;;;;;;;5013232;28;20459;-76
2023/05/19 02:28:08;;;;;;;7.17;3.70;;;;;;;;;;5012924;28;20849;-76
2023/05/19 02:30:35;;;;;;;4.43;4.00;;;;;;;;;;5012939;28;20471;-76
2023/05/19 02:33:05;;;;;;;7.97;4.20;;;;;;;;;;5012615;28;20451;-76
2023/05/19 02:35:32;;;;;;;7.40;4.10;;;;;;;;;;5012969;28;20494;-76
2023/05/19 02:38:00;;;;;;;4.40;3.30;;;;;;;;;;5012856;28;20456;-75
2023/05/19 02:40:27;;;;;;;4.30;3.90;;;;;;;;;;5012709;28;20545;-75
2023/05/19 02:42:54;;;;;;;5.20;4.00;;;;;;;;;;5012558;28;20493;-76
2023/05/19 02:45:21;;;;;;;4.90;3.77;;;;;;;;;;5019981;28;20505;-77
2023/05/19 02:47:48;;;;;;;4.23;3.90;;;;;;;;;;5019051;28;20530;-77
2023/05/19 02:50:16;;;;;;;7.93;4.37;;;;;;;;;;5015743;28;20533;-75
2023/05/19 02:52:42;;;;;;;4.43;3.70;;;;;;;;;;5019924;28;20475;-76
2023/05/19 02:55:15;;;;;;;7.80;3.90;;;;;;;;;;5035338;28;20462;-76
2023/05/19 02:57:42;;;;;;;3.60;3.30;;;;;;;;;;5023133;28;20439;-75
2023/05/19 03:00:10;;;;;;;5.27;3.83;;;;;;;;;;5015458;28;20498;-76
2023/05/19 03:02:37;;;;;;;4.20;3.80;;;;;;;;;;5013994;28;20973;-74
2023/05/19 03:05:04;;;;;;;4.60;3.87;;;;;;;;;;5012792;28;20450;-75
2023/05/19 03:07:32;;;;;;;7.00;4.00;;;;;;;;;;5012770;28;20522;-75
2023/05/19 03:10:02;;;;;;;4.20;3.80;;;;;;;;;;5012605;28;20475;-76
2023/05/19 03:12:31;;;;;;;15.60;4.30;;;;;;;;;;5012568;28;20451;-74
2023/05/19 03:14:58;;;;;;;5.80;4.20;;;;;;;;;;5012637;28;20490;-75
2023/05/19 03:17:25;;;;;;;6.47;4.00;;;;;;;;;;5012253;28;20551;-75
2023/05/19 03:19:52;;;;;;;4.13;3.70;;;;;;;;;;5012287;28;20468;-76
2023/05/19 03:22:19;;;;;;;6.33;3.87;;;;;;;;;;5012224;28;20447;-76
2023/05/19 03:24:49;;;;;;;6.10;3.60;;;;;;;;;;5011890;28;20534;-76
2023/05/19 03:27:16;;;;;;;6.77;4.37;;;;;;;;;;5012260;28;20517;-76
2023/05/19 03:29:45;;;;;;;4.83;4.30;;;;;;;;;;5011874;28;20521;-75
2023/05/19 03:32:12;;;;;;;8.30;3.63;;;;;;;;;;5012050;28;20451;-76
2023/05/19 03:34:39;;;;;;;6.23;3.97;;;;;;;;;;5011471;28;20462;-76
2023/05/19 03:37:06;;;;;;;5.70;4.90;;;;;;;;;;5011876;28;20505;-75
2023/05/19 03:39:33;;;;;;;5.27;3.90;;;;;;;;;;5011539;28;20479;-75
2023/05/19 03:42:00;;;;;;;6.80;3.73;;;;;;;;;;5011403;28;20505;-75
2023/05/19 03:44:27;;;;;;;9.43;5.20;;;;;;;;;;5011659;28;20452;-76
2023/05/19 03:46:56;;;;;;;4.30;3.60;;;;;;;;;;5011530;28;21007;-77
2023/05/19 03:49:23;;;;;;;5.40;4.00;;;;;;;;;;5011217;28;20537;-76
2023/05/19 03:51:50;;;;;;;8.27;4.30;;;;;;;;;;5011357;28;20474;-75
2023/05/19 03:54:17;;;;;;;4.73;4.10;;;;;;;;;;5011326;28;20451;-75
2023/05/19 03:56:44;;;;;;;4.60;4.20;;;;;;;;;;5011354;28;20447;-75
2023/05/19 03:59:11;;;;;;;5.90;4.40;;;;;;;;;;5010821;28;20474;-75
2023/05/19 04:01:38;;;;;;;4.60;4.20;;;;;;;;;;5011594;28;20447;-75
2023/05/19 04:04:07;;;;;;;5.63;4.17;;;;;;;;;;5011659;28;20945;-75
2023/05/19 04:06:35;;;;;;;4.70;4.30;;;;;;;;;;5029206;28;20431;-77
2023/05/19 04:09:03;;;;;;;8.17;3.73;;;;;;;;;;5037044;28;20593;-75
2023/05/19 04:11:30;;;;;;;6.00;4.07;;;;;;;;;;5037691;28;20427;-75
2023/05/19 04:13:57;;;;;;;8.17;5.13;;;;;;;;;;5036668;28;20495;-77
2023/05/19 04:16:24;;;;;;;7.23;4.30;;;;;;;;;;5022717;28;20455;-75
2023/05/19 04:18:51;;;;;;;7.00;6.07;;;;;;;;;;5012439;28;20436;-75
2023/05/19 04:21:21;;;;;;;5.73;4.80;;;;;;;;;;5011979;28;20447;-75
2023/05/19 04:23:48;;;;;;;7.03;4.70;;;;;;;;;;5011350;28;20443;-75
2023/05/19 04:26:15;;;;;;;4.87;4.47;;;;;;;;;;5011091;28;20538;-75
2023/05/19 04:28:43;;;;;;;5.03;4.40;;;;;;;;;;5011178;28;20485;-76
2023/05/19 04:31:11;;;;;;;7.90;4.10;;;;;;;;;;5011783;28;20949;-75
2023/05/19 04:33:38;;;;;;;6.20;4.67;;;;;;;;;;5011397;28;20486;-77
2023/05/19 04:36:07;;;;;;;5.70;4.80;;;;;;;;;;5012089;28;20467;-75
2023/05/19 04:38:36;;;;;;;5.50;4.23;;;;;;;;;;5011531;28;20454;-76
2023/05/19 04:41:03;;;;;;;4.70;4.30;;;;;;;;;;5011397;28;20467;-76
2023/05/19 04:43:30;;;;;;;8.27;4.53;;;;;;;;;;5011184;28;20458;-77
2023/05/19 04:45:57;;;;;;;7.53;4.60;;;;;;;;;;5011964;28;20450;-75
2023/05/19 04:48:24;;;;;;;8.00;5.20;;;;;;;;;;5011311;28;20529;-74
2023/05/19 04:50:51;;;;;;;5.83;5.23;;;;;;;;;;5011814;28;20896;-75
2023/05/19 04:53:20;;;;;;;4.90;4.50;;;;;;;;;;5011079;28;20890;-76
2023/05/19 04:55:49;;;;;;;6.80;4.57;;;;;;;;;;5012267;28;20444;-75
2023/05/19 04:58:17;;;;;;;7.03;4.60;;;;;;;;;;5011907;28;20574;-75
2023/05/19 05:00:44;;;;;;;8.57;4.40;;;;;;;;;;5012126;28;20503;-75
2023/05/19 05:03:13;;;;;;;5.53;4.90;;;;;;;;;;5012624;28;20455;-75
2023/05/19 05:05:40;;;;;;;8.43;4.80;;;;;;;;;;5012727;28;20819;-78
2023/05/19 05:08:07;;;;;;;4.60;4.20;;;;;;;;;;5012090;28;20484;-76
2023/05/19 05:10:34;;;;;;;6.10;4.70;;;;;;;;;;5011959;28;20471;-74
2023/05/19 05:13:03;;;;;;;4.33;4.03;;;;;;;;;;5014709;28;20454;-76
2023/05/19 05:15:30;;;;;;;5.07;4.57;;;;;;;;;;5017138;28;20964;-75
2023/05/19 05:17:58;;;;;;;5.80;4.33;;;;;;;;;;5015861;28;20447;-77
2023/05/19 05:20:25;;;;;;;6.23;4.53;;;;;;;;;;5016146;28;20911;-76
2023/05/19 05:22:52;;;;;;;5.37;4.17;;;;;;;;;;5014873;28;20949;-75
2023/05/19 05:25:20;;;;;;;4.53;4.10;;;;;;;;;;5014364;28;20860;-76
2023/05/19 05:27:47;;;;;;;5.77;4.50;;;;;;;;;;5014483;28;20447;-77
2023/05/19 05:30:15;;;;;;;7.67;4.87;;;;;;;;;;5014372;28;20478;-75
2023/05/19 05:32:42;;;;;;;5.97;4.20;;;;;;;;;;5014275;28;20458;-76
2023/05/19 05:35:10;;;;;;;5.40;4.73;;;;;;;;;;5014067;28;20451;-77
2023/05/19 05:37:37;;;;;;;4.70;4.20;;;;;;;;;;5014218;28;20446;-75
2023/05/19 05:40:05;;;;;;;8.47;4.53;;;;;;;;;;5014115;28;20811;-76
2023/05/19 05:42:32;;;;;;;4.83;4.30;;;;;;;;;;5014048;28;20527;-77
2023/05/19 05:44:59;;;;;;;5.90;4.60;;;;;;;;;;5014634;28;20439;-76
2023/05/19 05:47:28;;;;;;;5.93;4.13;;;;;;;;;;5013872;28;20443;-76
2023/05/19 05:49:55;;;;;;;8.50;5.00;;;;;;;;;;5014061;28;20483;-77
2023/05/19 05:52:22;;;;;;;10.13;3.97;;;;;;;;;;5014327;28;20451;-75
2023/05/19 05:54:50;;;;;;;4.53;4.13;;;;;;;;;;5013640;28;20447;-77
2023/05/19 05:57:17;;;;;;;5.50;4.40;;;;;;;;;;5016855;28;20517;-74
2023/05/19 05:59:45;;;;;;;9.33;4.80;;;;;;;;;;5014590;28;20470;-75
2023/05/19 06:02:13;;;;;;;8.30;5.40;;;;;;;;;;5014696;28;20454;-76
2023/05/19 06:04:41;;;;;;;6.20;4.37;;;;;;;;;;5013828;28;20961;-77
2023/05/19 06:07:08;;;;;;;4.83;4.43;;;;;;;;;;5014090;28;20505;-75
2023/05/19 06:09:35;;;;;;;9.40;4.83;;;;;;;;;;5013977;28;21093;-77
2023/05/19 06:12:02;;;;;;;5.20;4.70;;;;;;;;;;5013427;28;20477;-75
2023/05/19 06:14:29;;;;;;;6.70;4.80;;;;;;;;;;5012701;28;20458;-77
2023/05/19 06:16:56;;;;;;;5.03;4.53;;;;;;;;;;5013908;28;20455;-75
2023/05/19 06:19:24;;;;;;;7.93;4.70;;;;;;;;;;5013313;28;20891;-77
2023/05/19 06:21:52;;;;;;;5.50;4.80;;;;;;;;;;5010044;28;20455;-75
2023/05/19 06:24:19;;;;;;;6.07;4.70;;;;;;;;;;5012866;28;20502;-76
2023/05/19 06:26:47;;;;;;;4.80;4.30;;;;;;;;;;5013027;28;20957;-76
2023/05/19 06:29:14;;;;;;;5.00;4.50;;;;;;;;;;5013132;28;20545;-77
2023/05/19 06:31:41;;;;;;;5.00;4.60;;;;;;;;;;5013638;28;20447;-78
2023/05/19 06:34:11;;;;;;;8.20;5.10;;;;;;;;;;5012896;28;20440;-78
2023/05/19 06:36:39;;;;;;;5.77;4.63;;;;;;;;;;5013432;28;20451;-77
2023/05/19 06:39:07;;;;;;;5.83;4.60;;;;;;;;;;5013292;28;20538;-76
2023/05/19 06:41:34;;;;;;;5.30;4.70;;;;;;;;;;5013226;28;20439;-76
2023/05/19 06:44:01;;;;;;;5.37;4.87;;;;;;;;;;5013617;28;20447;-77
2023/05/19 06:46:28;;;;;;;7.80;4.53;;;;;;;;;;5013672;28;20454;-75
2023/05/19 06:48:56;;;;;;;6.67;4.83;;;;;;;;;;5013569;28;20475;-75
2023/05/19 06:51:23;;;;;;;7.27;4.40;;;;;;;;;;5015760;28;20451;-76
2023/05/19 06:53:50;;;;;;;6.07;4.47;;;;;;;;;;5017869;28;20447;-76
2023/05/19 06:56:18;;;;;;;5.70;5.00;;;;;;;;;;5016985;28;20451;-76
2023/05/19 06:58:45;;;;;;;4.73;4.20;;;;;;;;;;5016366;28;20458;-75
2023/05/19 07:01:12;;;;;;;7.77;5.43;;;;;;;;;;5017113;28;20473;-77
2023/05/19 07:03:39;;;;;;;5.47;4.50;;;;;;;;;;5014647;28;20452;-77
2023/05/19 07:06:06;;;;;;;6.60;4.80;;;;;;;;;;5013855;28;20451;-77
2023/05/19 07:08:35;;;;;;;7.87;4.80;;;;;;;;;;5015132;28;20483;-77
2023/05/19 07:11:02;;;;;;;7.70;4.90;;;;;;;;;;5013652;28;20574;-75
2023/05/19 07:13:31;;;;;;;7.70;4.80;;;;;;;;;;5017930;28;20937;-77
2023/05/19 07:15:58;;;;;;;7.43;4.77;;;;;;;;;;5015403;28;20456;-77
2023/05/19 07:18:25;;;;;;;4.60;4.00;;;;;;;;;;5013384;28;20447;-78
2023/05/19 07:20:52;;;;;;;8.43;4.70;;;;;;;;;;5014958;28;21024;-77
2023/05/19 07:23:19;;;;;;;10.90;4.90;;;;;;;;;;5014272;28;20452;-78
2023/05/19 07:25:46;;;;;;;7.80;4.40;;;;;;;;;;5015312;28;20450;-77
2023/05/19 07:28:13;;;;;;;6.13;5.13;;;;;;;;;;5014164;28;20450;-78
2023/05/19 07:30:42;;;;;;;6.30;4.80;;;;;;;;;;5016114;28;20972;-79
2023/05/19 07:33:09;;;;;;;8.53;4.80;;;;;;;;;;5011736;28;20453;-77
2023/05/19 07:35:36;;;;;;;6.27;4.60;;;;;;;;;;5010906;28;20451;-76
2023/05/19 07:38:03;;;;;;;6.90;5.00;;;;;;;;;;5011975;28;20466;-77
2023/05/19 07:40:30;;;;;;;6.83;4.77;;;;;;;;;;5012044;28;20467;-76
2023/05/19 07:42:57;;;;;;;4.97;4.30;;;;;;;;;;5011987;28;20451;-77
2023/05/19 07:45:24;;;;;;;8.53;5.07;;;;;;;;;;5011895;28;20497;-76
2023/05/19 07:47:53;;;;;;;5.30;4.50;;;;;;;;;;5011853;28;20447;-77
2023/05/19 07:50:21;;;;;;;8.20;4.90;;;;;;;;;;5012130;28;20487;-77
2023/05/19 07:52:48;;;;;;;9.83;5.13;;;;;;;;;;5012180;28;20448;-76
2023/05/19 07:55:16;;;;;;;5.00;4.20;;;;;;;;;;5012801;28;20809;-79
2023/05/19 07:57:43;;;;;;;6.80;4.63;;;;;;;;;;5012534;28;20452;-77
2023/05/19 08:00:11;;;;;;;5.57;4.57;;;;;;;;;;5012299;28;20463;-76
2023/05/19 08:02:38;;;;;;;6.13;3.90;;;;;;;;;;5012230;28;20497;-76
2023/05/19 08:05:08;;;;;;;6.80;4.87;;;;;;;;;;5017470;28;20466;-76
2023/05/19 08:07:35;;;;;;;5.13;3.90;;;;;;;;;;5037350;28;20439;-78
2023/05/19 08:10:02;;;;;;;5.37;4.40;;;;;;;;;;5037764;28;20475;-78
2023/05/19 08:12:29;;;;;;;7.37;4.60;;;;;;;;;;5037243;28;20450;-78
2023/05/19 08:14:56;;;;;;;6.70;4.97;;;;;;;;;;5024025;28;20611;-76
2023/05/19 08:17:23;;;;;;;4.50;4.10;;;;;;;;;;5014037;28;20443;-77
2023/05/19 08:19:50;;;;;;;8.83;4.40;;;;;;;;;;5012470;28;20451;-77
2023/05/19 08:22:18;;;;;;;7.73;4.53;;;;;;;;;;5012428;28;20479;-77
2023/05/19 08:24:45;;;;;;;4.87;4.40;;;;;;;;;;5012354;28;20447;-78
2023/05/19 08:27:12;;;;;;;6.60;4.60;;;;;;;;;;5013632;28;20439;-77
2023/05/19 08:29:39;;;;;;;9.50;4.60;;;;;;;;;;5006700;28;20516;-76
2023/05/19 08:32:06;;;;;;;4.67;4.17;;;;;;;;;;5012418;28;21218;-76
2023/05/19 08:34:33;;;;;;;10.90;4.60;;;;;;;;;;5016095;28;20553;-77
2023/05/19 08:37:01;;;;;;;6.30;5.70;;;;;;;;;;5012502;28;20845;-77
2023/05/19 08:39:32;;;;;;;7.57;6.30;;;;;;;;;;5011480;28;20468;-78
2023/05/19 08:42:00;;;;;;;7.17;4.93;;;;;;;;;;5012187;28;20447;-76
2023/05/19 08:44:27;;;;;;;5.57;4.03;;;;;;;;;;5011448;28;20820;-78
2023/05/19 08:46:55;;;;;;;8.63;4.30;;;;;;;;;;5011614;28;20462;-79
2023/05/19 08:49:24;;;;;;;4.90;3.80;;;;;;;;;;5011078;28;20577;-76
2023/05/19 08:51:56;;;;;;;7.13;4.27;;;;;;;;;;5011549;28;20447;-77
2023/05/19 08:54:25;;;;;;;6.77;4.77;;;;;;;;;;5010826;28;20443;-77
2023/05/19 08:56:54;;;;;;;4.80;3.97;;;;;;;;;;5010886;28;20435;-76
2023/05/19 08:59:22;;;;;;;6.97;4.60;;;;;;;;;;5001818;28;21185;-77
2023/05/19 09:01:49;;;;;;;4.87;4.07;;;;;;;;;;4991548;28;20503;-76
2023/05/19 09:04:17;;;;;;;5.83;4.00;;;;;;;;;;4990825;28;20977;-77
2023/05/19 09:06:44;;;;;;;6.20;4.13;;;;;;;;;;4991269;28;20444;-77
2023/05/19 09:09:11;;;;;;;6.10;4.13;;;;;;;;;;4990876;28;20520;-77
2023/05/19 09:11:38;;;;;;;4.43;3.70;;;;;;;;;;4991601;28;20457;-77
2023/05/19 09:14:07;;;;;;;6.03;4.73;;;;;;;;;;4992021;28;20456;-75
2023/05/19 09:16:34;;;;;;;4.80;4.33;;;;;;;;;;4991314;28;20875;-77
2023/05/19 09:19:01;;;;;;;5.23;4.13;;;;;;;;;;4991152;28;20484;-77
2023/05/19 09:21:32;;;;;;;6.30;4.60;;;;;;;;;;4991525;28;20445;-75
2023/05/19 09:23:59;;;;;;;9.13;4.33;;;;;;;;;;4992024;28;20468;-76
2023/05/19 09:26:37;;;;;;;4.33;3.90;;;;;;;;;;5007420;28;20522;-76
2023/05/19 09:29:16;;;;;;;9.60;4.97;;;;;;;;;;5008234;28;20569;-78
2023/05/19 09:31:49;;;;;;;6.70;4.73;;;;;;;;;;5010083;28;20459;-78
2023/05/19 09:34:17;;;;;;;7.60;4.10;;;;;;;;;;4993432;28;20484;-77
2023/05/19 09:36:44;;;;;;;6.50;4.60;;;;;;;;;;5006366;28;20493;-77
2023/05/19 09:39:14;;;;;;;8.40;4.90;;;;;;;;;;5010311;28;20558;-78
2023/05/19 09:41:44;;;;;;;11.07;4.70;;;;;;;;;;5010866;28;20949;-77
2023/05/19 09:44:28;;;;;;;4.90;4.03;;;;;;;;;;5009545;28;20811;-77
2023/05/19 09:46:56;;;;;;;6.87;4.70;;;;;;;;;;5009938;28;20941;-77
2023/05/19 09:49:25;;;;;;;4.73;4.27;;;;;;;;;;5012240;28;20842;-76
2023/05/19 09:51:54;;;;;;;6.33;4.60;;;;;;;;;;5024850;28;20439;-76
2023/05/19 09:54:22;;;;;;;5.30;4.10;;;;;;;;;;5020020;28;20455;-75
2023/05/19 09:56:53;;;;;;;7.20;4.90;;;;;;;;;;5026747;28;20539;-76
2023/05/19 10:02:13;;;;;;;8.63;4.70;;;;;;;;;;5030083;28;20503;-78
2023/05/19 10:04:41;;;;;;;6.70;4.37;;;;;;;;;;5017818;28;20447;-77
2023/05/19 10:07:08;;;;;;;7.43;4.50;;;;;;;;;;5013775;28;20511;-78
2023/05/19 10:09:36;;;;;;;7.33;4.57;;;;;;;;;;5013235;28;20475;-76
2023/05/19 10:12:04;;;;;;;8.00;4.10;;;;;;;;;;5012702;28;20443;-77
2023/05/19 10:14:31;;;;;;;6.20;4.33;;;;;;;;;;5015573;28;20439;-77
2023/05/19 10:16:59;;;;;;;8.23;4.43;;;;;;;;;;5017260;28;20474;-75
2023/05/19 10:19:28;;;;;;;6.70;4.50;;;;;;;;;;5027541;28;20525;-77
2023/05/19 10:21:56;;;;;;;11.23;4.40;;;;;;;;;;5015589;28;20493;-77
2023/05/19 10:24:23;;;;;;;9.50;7.97;;;;;;;;;;5013531;28;20540;-77
2023/05/19 10:26:51;;;;;;;15.70;14.23;;;;;;;;;;5013182;28;20449;-77
2023/05/19 10:29:22;;;;;;;5.30;3.80;;;;;;;;;;5012718;28;20486;-78
2023/05/19 10:31:51;;;;;;;6.47;4.70;;;;;;;;;;5012781;28;20463;-78
2023/05/19 10:34:28;;;;;;;5.70;4.37;;;;;;;;;;5012528;28;20510;-75
2023/05/19 10:36:59;;;;;;;5.87;3.80;;;;;;;;;;5012197;28;20447;-74
2023/05/19 10:39:29;;;;;;;4.83;3.97;;;;;;;;;;5013047;28;20843;-76
2023/05/19 10:42:01;;;;;;;6.13;4.33;;;;;;;;;;5013882;28;20443;-76
2023/05/19 10:44:35;;;;;;;4.83;4.23;;;;;;;;;;5014023;28;20455;-77
2023/05/19 10:47:02;;;;;;;7.10;4.57;;;;;;;;;;5019630;28;20503;-77
2023/05/19 10:49:29;;;;;;;5.10;4.50;;;;;;;;;;5015951;28;20464;-77
2023/05/19 10:51:58;;;;;;;4.67;4.17;;;;;;;;;;5016405;28;20920;-76
2023/05/19 10:54:40;;;;;;;5.27;4.77;;;;;;;;;;5018499;28;21034;-77
2023/05/19 10:57:07;;;;;;;5.90;3.70;;;;;;;;;;5018794;28;20471;-78
2023/05/19 10:59:38;;;;;;;4.30;3.90;;;;;;;;;;5014969;28;20474;-78
2023/05/19 11:02:18;;;;;;;8.50;4.53;;;;;;;;;;5018952;28;20447;-77
2023/05/19 11:08:01;;;;;;;4.77;4.37;;;;;;;;;;5011854;28;20439;-76
2023/05/19 11:10:38;;;;;;;10.77;5.27;;;;;;;;;;5012431;28;20977;-77
2023/05/19 11:15:57;;;;;;;5.17;3.90;;;;;;;;;;5011330;28;20447;-77
2023/05/19 11:21:17;;;;;;;6.30;4.67;;;;;;;;;;4991157;28;20436;-77
2023/05/19 11:24:09;;;;;;;5.37;4.13;;;;;;;;;;4991259;28;20456;-77
2023/05/19 11:32:12;;;;;;;5.30;4.23;;;;;;;;;;5005227;28;20440;-77
2023/05/19 11:34:40;;;;;;;4.90;4.33;;;;;;;;;;5025997;28;20479;-77
2023/05/19 11:37:08;;;;;;;7.33;6.60;;;;;;;;;;5034738;28;20420;-77
2023/05/19 11:39:40;;;;;;;5.90;3.93;;;;;;;;;;5032938;28;20470;-77
2023/05/19 11:42:07;;;;;;;9.03;4.63;;;;;;;;;;5034282;28;20432;-77
2023/05/19 11:44:34;;;;;;;6.23;5.30;;;;;;;;;;5036161;28;20448;-78
2023/05/19 11:47:02;;;;;;;4.90;4.40;;;;;;;;;;5035528;28;20455;-76
2023/05/19 11:49:29;;;;;;;5.20;4.35;;;;;;;;;;5033054;28;20451;-76
2023/05/19 11:51:57;;;;;;;6.27;4.50;;;;;;;;;;5032755;28;20436;-76
2023/05/19 11:54:30;;;;;;;4.07;3.70;;;;;;;;;;5024055;28;20486;-77
2023/05/19 11:57:00;;;;;;;4.37;3.97;;;;;;;;;;5012974;28;20778;-77
2023/05/19 11:59:31;;;;;;;4.13;3.83;;;;;;;;;;5010868;28;20467;-77
2023/05/19 12:02:02;;;;;;;8.40;4.90;;;;;;;;;;5022251;28;20451;-78
2023/05/19 12:04:29;;;;;;;5.33;4.60;;;;;;;;;;5032862;28;20427;-75
2023/05/19 12:06:57;;;;;;;6.80;4.77;;;;;;;;;;5032254;28;20445;-78
2023/05/19 12:09:24;;;;;;;6.13;4.70;;;;;;;;;;5016928;28;20468;-77
2023/05/19 12:11:52;;;;;;;4.60;4.07;;;;;;;;;;5010849;28;21055;-76
2023/05/19 12:14:20;;;;;;;5.00;4.60;;;;;;;;;;5010600;28;21004;-78
2023/05/19 12:16:47;;;;;;;5.23;4.40;;;;;;;;;;5011157;28;20451;-75
2023/05/19 12:19:14;;;;;;;5.53;4.80;;;;;;;;;;5010623;28;20452;-75
2023/05/19 12:21:41;;;;;;;6.07;4.40;;;;;;;;;;5010554;28;20439;-78
2023/05/19 12:24:09;;;;;;;8.30;4.67;;;;;;;;;;5010527;28;20448;-75
2023/05/19 12:26:36;;;;;;;7.13;4.10;;;;;;;;;;5010825;28;20501;-78
2023/05/19 12:29:05;;;;;;;5.40;4.70;;;;;;;;;;5011179;28;21029;-76
2023/05/19 12:31:33;;;;;;;5.90;5.30;;;;;;;;;;5011582;28;20483;-77
2023/05/19 12:34:01;;;;;;;4.83;4.30;;;;;;;;;;5012002;28;20451;-76
2023/05/19 12:36:29;;;;;;;6.87;5.07;;;;;;;;;;5011509;28;20550;-75
2023/05/19 12:38:56;;;;;;;5.33;4.83;;;;;;;;;;5011443;28;21204;-76
2023/05/19 12:41:26;;;;;;;5.37;4.30;;;;;;;;;;5010627;28;21259;-77
2023/05/19 12:43:53;;;;;;;4.80;4.33;;;;;;;;;;5011522;28;20521;-76
2023/05/19 12:46:21;;;;;;;5.37;4.00;;;;;;;;;;5011015;28;20458;-76
2023/05/19 12:48:50;;;;;;;10.30;5.50;;;;;;;;;;5011284;28;20451;-77
2023/05/19 12:51:17;;;;;;;5.03;4.57;;;;;;;;;;5010957;28;20479;-76
2023/05/19 12:53:44;;;;;;;6.60;4.47;;;;;;;;;;5011856;28;20455;-76
2023/05/19 12:56:13;;;;;;;7.87;4.90;;;;;;;;;;5013545;28;20462;-77
2023/05/19 12:58:40;;;;;;;5.70;4.50;;;;;;;;;;5010453;28;21257;-77
2023/05/19 13:01:07;;;;;;;8.60;4.90;;;;;;;;;;5010730;28;20460;-76
2023/05/19 13:03:40;;;;;;;4.87;4.47;;;;;;;;;;5010449;28;20557;-77
2023/05/19 13:06:09;;;;;;;6.10;4.40;;;;;;;;;;5010258;28;20507;-76
2023/05/19 13:08:37;;;;;;;8.67;4.70;;;;;;;;;;5009622;28;20444;-77
2023/05/19 13:11:04;;;;;;;7.37;5.00;;;;;;;;;;5010285;28;20573;-78
2023/05/19 13:13:31;;;;;;;5.73;4.40;;;;;;;;;;5010011;28;21032;-76
2023/05/19 13:15:58;;;;;;;8.00;4.50;;;;;;;;;;5010465;28;20809;-78
2023/05/19 13:18:26;;;;;;;6.50;4.80;;;;;;;;;;5010450;28;20584;-75
2023/05/19 13:20:53;;;;;;;5.23;4.60;;;;;;;;;;5010431;28;20467;-78
2023/05/19 13:23:21;;;;;;;5.83;4.60;;;;;;;;;;5012616;28;20435;-78
2023/05/19 13:25:50;;;;;;;7.30;4.20;;;;;;;;;;5012383;28;20444;-77
2023/05/19 13:28:17;;;;;;;8.33;5.00;;;;;;;;;;5015257;28;20447;-77
2023/05/19 13:30:45;;;;;;;6.63;4.53;;;;;;;;;;5014040;28;20974;-77
2023/05/19 13:33:12;;;;;;;6.13;4.83;;;;;;;;;;5013652;28;20518;-77
2023/05/19 13:35:39;;;;;;;5.87;4.77;;;;;;;;;;5015721;28;20513;-78
2023/05/19 13:38:06;;;;;;;6.27;4.40;;;;;;;;;;5015616;28;20443;-78
2023/05/19 13:40:35;;;;;;;8.90;4.73;;;;;;;;;;5015636;28;20510;-79
2023/05/19 13:43:02;;;;;;;5.03;4.53;;;;;;;;;;5016912;28;20462;-77
2023/05/19 13:45:29;;;;;;;7.03;4.83;;;;;;;;;;5017624;28;20502;-77
2023/05/19 13:47:56;;;;;;;6.10;4.57;;;;;;;;;;5015720;28;20450;-78
2023/05/19 13:50:23;;;;;;;5.47;4.60;;;;;;;;;;5015315;28;20478;-79
2023/05/19 13:52:50;;;;;;;5.53;3.83;;;;;;;;;;5015964;28;20451;-77
2023/05/19 13:55:18;;;;;;;5.37;4.47;;;;;;;;;;5017391;28;20527;-78
2023/05/19 13:57:46;;;;;;;6.90;4.90;;;;;;;;;;5016404;28;20462;-76
2023/05/19 14:00:13;;;;;;;7.23;4.97;;;;;;;;;;5016617;28;20515;-78
2023/05/19 14:02:41;;;;;;;7.60;5.30;;;;;;;;;;5017066;28;20471;-78
2023/05/19 14:05:10;;;;;;;7.60;3.93;;;;;;;;;;5018879;28;20475;-77
2023/05/19 14:07:37;;;;;;;6.33;4.47;;;;;;;;;;5036526;28;20434;-81
2023/05/19 14:10:05;;;;;;;5.87;4.57;;;;;;;;;;5037948;28;20463;-75
2023/05/19 14:12:33;;;;;;;5.70;4.63;;;;;;;;;;5037896;28;20506;-78
2023/05/19 14:15:02;;;;;;;4.50;4.10;;;;;;;;;;5038234;28;20451;-80
2023/05/19 14:17:29;;;;;;;7.90;4.63;;;;;;;;;;5018833;28;20458;-76
2023/05/19 14:19:56;;;;;;;4.60;4.03;;;;;;;;;;5015738;28;20463;-78
2023/05/19 14:22:23;;;;;;;7.30;4.70;;;;;;;;;;5016470;28;20474;-76
2023/05/19 14:24:50;;;;;;;6.23;4.53;;;;;;;;;;5014671;28;20459;-77
2023/05/19 14:27:17;;;;;;;6.30;4.80;;;;;;;;;;5013658;28;20443;-78
2023/05/19 14:29:44;;;;;;;4.60;4.20;;;;;;;;;;5013147;28;20463;-76
2023/05/19 14:32:12;;;;;;;5.10;4.60;;;;;;;;;;5013217;28;20566;-75
2023/05/19 14:34:40;;;;;;;4.73;4.23;;;;;;;;;;5012785;28;20459;-76
2023/05/19 14:37:07;;;;;;;5.03;4.47;;;;;;;;;;5013794;28;20448;-78
2023/05/19 14:39:34;;;;;;;6.37;4.47;;;;;;;;;;5012965;28;20467;-76
2023/05/19 14:42:01;;;;;;;4.53;4.10;;;;;;;;;;5013268;28;20509;-76
2023/05/19 14:44:31;;;;;;;4.20;3.87;;;;;;;;;;5012824;28;20452;-77
2023/05/19 14:46:58;;;;;;;5.70;4.67;;;;;;;;;;5013807;28;20454;-77
2023/05/19 14:49:27;;;;;;;4.83;4.10;;;;;;;;;;5013376;28;20621;-77
2023/05/19 14:51:54;;;;;;;8.40;4.83;;;;;;;;;;5012945;28;20533;-76
2023/05/19 14:54:21;;;;;;;5.37;4.10;;;;;;;;;;5013205;28;20837;-77
2023/05/19 14:56:48;;;;;;;6.63;4.80;;;;;;;;;;5013295;28;20435;-77
2023/05/19 14:59:15;;;;;;;5.17;4.10;;;;;;;;;;5013398;28;20834;-77
2023/05/19 15:01:42;;;;;;;5.20;4.53;;;;;;;;;;5013803;28;20460;-77
2023/05/19 15:04:09;;;;;;;7.90;3.83;;;;;;;;;;5013435;28;20443;-78
2023/05/19 15:06:37;;;;;;;6.80;4.47;;;;;;;;;;5013974;28;20451;-78